sensor_id;sensor_type;location;lat;lon;timestamp;P1;durP1;ratioP1;P2;durP2;ratioP2
38805;SDS011;25635;51.146;17.162;2024-01-06T00:00:59;45.30;;;24.30;;
38805;SDS011;25635;51.146;17.162;2024-01-06T00:03:46;45.30;;;24.30;;
38805;SDS011;25635;51.146;17.162;2024-01-06T00:06:32;45.10;;;22.60;;
38805;SDS011;25635;51.146;17.162;2024-01-06T00:09:19;44.00;;;23.00;;
38805;SDS011;25635;51.146;17.162;2024-01-06T00:12:06;43.40;;;23.20;;
38805;SDS011;25635;51.146;17.162;2024-01-06T00:14:52;43.20;;;23.40;;
38805;SDS011;25635;51.146;17.162;2024-01-06T00:17:39;45.00;;;23.00;;
38805;SDS011;25635;51.146;17.162;2024-01-06T00:20:26;51.20;;;27.30;;
38805;SDS011;25635;51.146;17.162;2024-01-06T00:23:13;49.10;;;25.40;;
38805;SDS011;25635;51.146;17.162;2024-01-06T00:26:00;42.10;;;23.70;;
38805;SDS011;25635;51.146;17.162;2024-01-06T00:28:47;43.30;;;24.90;;
38805;SDS011;25635;51.146;17.162;2024-01-06T00:31:33;43.50;;;24.30;;
38805;SDS011;25635;51.146;17.162;2024-01-06T00:34:20;46.00;;;25.30;;
38805;SDS011;25635;51.146;17.162;2024-01-06T00:37:07;46.60;;;25.80;;
38805;SDS011;25635;51.146;17.162;2024-01-06T00:39:53;47.70;;;26.10;;
38805;SDS011;25635;51.146;17.162;2024-01-06T00:42:40;45.90;;;27.20;;
38805;SDS011;25635;51.146;17.162;2024-01-06T00:45:27;48.60;;;24.80;;
38805;SDS011;25635;51.146;17.162;2024-01-06T00:48:13;46.70;;;25.20;;
38805;SDS011;25635;51.146;17.162;2024-01-06T00:51:00;37.20;;;23.40;;
38805;SDS011;25635;51.146;17.162;2024-01-06T00:53:47;47.00;;;24.80;;
38805;SDS011;25635;51.146;17.162;2024-01-06T00:56:34;41.20;;;23.90;;
38805;SDS011;25635;51.146;17.162;2024-01-06T00:59:20;38.20;;;22.90;;
38805;SDS011;25635;51.146;17.162;2024-01-06T01:02:07;40.00;;;22.20;;
38805;SDS011;25635;51.146;17.162;2024-01-06T01:04:54;45.40;;;24.20;;
38805;SDS011;25635;51.146;17.162;2024-01-06T01:07:41;43.60;;;24.60;;
38805;SDS011;25635;51.146;17.162;2024-01-06T01:10:27;43.10;;;24.10;;
38805;SDS011;25635;51.146;17.162;2024-01-06T01:13:14;46.80;;;25.00;;
38805;SDS011;25635;51.146;17.162;2024-01-06T01:16:01;41.40;;;23.70;;
38805;SDS011;25635;51.146;17.162;2024-01-06T01:18:48;41.60;;;23.50;;
38805;SDS011;25635;51.146;17.162;2024-01-06T01:21:34;41.60;;;22.60;;
38805;SDS011;25635;51.146;17.162;2024-01-06T01:24:21;47.30;;;23.50;;
38805;SDS011;25635;51.146;17.162;2024-01-06T01:27:08;42.70;;;24.10;;
38805;SDS011;25635;51.146;17.162;2024-01-06T01:29:56;42.90;;;24.60;;
38805;SDS011;25635;51.146;17.162;2024-01-06T01:32:42;42.10;;;23.20;;
38805;SDS011;25635;51.146;17.162;2024-01-06T01:35:29;45.50;;;24.20;;
38805;SDS011;25635;51.146;17.162;2024-01-06T01:38:16;44.70;;;24.60;;
38805;SDS011;25635;51.146;17.162;2024-01-06T01:41:02;46.40;;;26.00;;
38805;SDS011;25635;51.146;17.162;2024-01-06T01:43:29;47.20;;;24.50;;
38805;SDS011;25635;51.146;17.162;2024-01-06T01:46:16;44.80;;;24.20;;
38805;SDS011;25635;51.146;17.162;2024-01-06T01:49:02;46.00;;;24.30;;
38805;SDS011;25635;51.146;17.162;2024-01-06T01:51:50;44.30;;;23.50;;
38805;SDS011;25635;51.146;17.162;2024-01-06T01:54:38;44.00;;;23.20;;
38805;SDS011;25635;51.146;17.162;2024-01-06T01:57:25;40.80;;;23.60;;
38805;SDS011;25635;51.146;17.162;2024-01-06T02:00:12;48.10;;;24.30;;
38805;SDS011;25635;51.146;17.162;2024-01-06T02:02:59;43.40;;;23.40;;
38805;SDS011;25635;51.146;17.162;2024-01-06T02:05:47;38.80;;;22.80;;
38805;SDS011;25635;51.146;17.162;2024-01-06T02:08:34;43.90;;;25.30;;
38805;SDS011;25635;51.146;17.162;2024-01-06T02:11:21;44.60;;;24.20;;
38805;SDS011;25635;51.146;17.162;2024-01-06T02:13:48;40.50;;;23.20;;
38805;SDS011;25635;51.146;17.162;2024-01-06T02:16:34;40.70;;;23.00;;
38805;SDS011;25635;51.146;17.162;2024-01-06T02:19:21;40.90;;;22.80;;
38805;SDS011;25635;51.146;17.162;2024-01-06T02:22:08;39.70;;;21.60;;
38805;SDS011;25635;51.146;17.162;2024-01-06T02:24:34;37.60;;;20.90;;
38805;SDS011;25635;51.146;17.162;2024-01-06T02:27:21;40.00;;;22.20;;
38805;SDS011;25635;51.146;17.162;2024-01-06T02:30:08;40.00;;;21.30;;
38805;SDS011;25635;51.146;17.162;2024-01-06T02:32:55;37.00;;;20.70;;
38805;SDS011;25635;51.146;17.162;2024-01-06T02:35:42;37.10;;;21.40;;
38805;SDS011;25635;51.146;17.162;2024-01-06T02:38:29;35.40;;;20.90;;
38805;SDS011;25635;51.146;17.162;2024-01-06T02:41:16;40.70;;;22.20;;
38805;SDS011;25635;51.146;17.162;2024-01-06T02:43:59;43.70;;;23.10;;
38805;SDS011;25635;51.146;17.162;2024-01-06T02:46:46;43.10;;;22.90;;
38805;SDS011;25635;51.146;17.162;2024-01-06T02:49:32;44.40;;;23.90;;
38805;SDS011;25635;51.146;17.162;2024-01-06T02:52:19;39.10;;;22.00;;
38805;SDS011;25635;51.146;17.162;2024-01-06T02:55:07;37.90;;;21.40;;
38805;SDS011;25635;51.146;17.162;2024-01-06T02:57:54;38.90;;;22.20;;
38805;SDS011;25635;51.146;17.162;2024-01-06T03:00:40;41.40;;;22.60;;
38805;SDS011;25635;51.146;17.162;2024-01-06T03:03:28;40.70;;;21.50;;
38805;SDS011;25635;51.146;17.162;2024-01-06T03:06:14;36.60;;;21.40;;
38805;SDS011;25635;51.146;17.162;2024-01-06T03:09:06;36.20;;;21.30;;
38805;SDS011;25635;51.146;17.162;2024-01-06T03:11:52;42.30;;;23.50;;
38805;SDS011;25635;51.146;17.162;2024-01-06T03:14:20;45.10;;;25.10;;
38805;SDS011;25635;51.146;17.162;2024-01-06T03:17:07;45.50;;;24.40;;
38805;SDS011;25635;51.146;17.162;2024-01-06T03:19:54;46.70;;;25.90;;
38805;SDS011;25635;51.146;17.162;2024-01-06T03:22:44;39.30;;;23.00;;
38805;SDS011;25635;51.146;17.162;2024-01-06T03:25:31;44.80;;;24.90;;
38805;SDS011;25635;51.146;17.162;2024-01-06T03:28:46;45.10;;;23.80;;
38805;SDS011;25635;51.146;17.162;2024-01-06T03:31:33;44.50;;;24.00;;
38805;SDS011;25635;51.146;17.162;2024-01-06T03:34:21;45.60;;;23.40;;
38805;SDS011;25635;51.146;17.162;2024-01-06T03:37:08;41.00;;;23.00;;
38805;SDS011;25635;51.146;17.162;2024-01-06T03:39:55;40.00;;;23.50;;
38805;SDS011;25635;51.146;17.162;2024-01-06T03:42:43;41.00;;;23.40;;
38805;SDS011;25635;51.146;17.162;2024-01-06T03:45:29;43.90;;;25.00;;
38805;SDS011;25635;51.146;17.162;2024-01-06T03:48:17;43.70;;;23.80;;
38805;SDS011;25635;51.146;17.162;2024-01-06T03:50:52;47.10;;;25.90;;
38805;SDS011;25635;51.146;17.162;2024-01-06T03:53:38;47.30;;;25.40;;
38805;SDS011;25635;51.146;17.162;2024-01-06T03:56:25;45.70;;;24.60;;
38805;SDS011;25635;51.146;17.162;2024-01-06T03:59:13;46.40;;;24.30;;
38805;SDS011;25635;51.146;17.162;2024-01-06T04:02:08;42.80;;;22.70;;
38805;SDS011;25635;51.146;17.162;2024-01-06T04:04:55;47.60;;;23.80;;
38805;SDS011;25635;51.146;17.162;2024-01-06T04:07:42;44.50;;;24.00;;
38805;SDS011;25635;51.146;17.162;2024-01-06T04:10:37;42.70;;;23.00;;
38805;SDS011;25635;51.146;17.162;2024-01-06T04:13:24;39.90;;;22.60;;
38805;SDS011;25635;51.146;17.162;2024-01-06T04:16:11;44.00;;;23.80;;
38805;SDS011;25635;51.146;17.162;2024-01-06T04:18:58;45.20;;;23.80;;
38805;SDS011;25635;51.146;17.162;2024-01-06T04:21:45;46.10;;;23.90;;
38805;SDS011;25635;51.146;17.162;2024-01-06T04:24:31;46.10;;;25.10;;
38805;SDS011;25635;51.146;17.162;2024-01-06T04:27:18;47.20;;;24.60;;
38805;SDS011;25635;51.146;17.162;2024-01-06T04:30:05;46.30;;;25.50;;
38805;SDS011;25635;51.146;17.162;2024-01-06T04:33:01;45.60;;;23.60;;
38805;SDS011;25635;51.146;17.162;2024-01-06T04:35:27;44.40;;;23.30;;
38805;SDS011;25635;51.146;17.162;2024-01-06T04:38:14;44.80;;;23.60;;
38805;SDS011;25635;51.146;17.162;2024-01-06T04:41:01;38.50;;;22.60;;
38805;SDS011;25635;51.146;17.162;2024-01-06T04:43:57;44.40;;;22.70;;
38805;SDS011;25635;51.146;17.162;2024-01-06T04:46:44;46.60;;;24.40;;
38805;SDS011;25635;51.146;17.162;2024-01-06T04:49:31;40.70;;;23.50;;
38805;SDS011;25635;51.146;17.162;2024-01-06T04:52:18;40.50;;;22.40;;
38805;SDS011;25635;51.146;17.162;2024-01-06T04:54:53;46.20;;;24.50;;
38805;SDS011;25635;51.146;17.162;2024-01-06T04:57:39;51.60;;;26.50;;
38805;SDS011;25635;51.146;17.162;2024-01-06T05:00:26;48.70;;;25.00;;
38805;SDS011;25635;51.146;17.162;2024-01-06T05:03:13;48.80;;;25.80;;
38805;SDS011;25635;51.146;17.162;2024-01-06T05:06:00;44.70;;;25.50;;
38805;SDS011;25635;51.146;17.162;2024-01-06T05:08:46;46.50;;;24.20;;
38805;SDS011;25635;51.146;17.162;2024-01-06T05:11:33;45.10;;;23.80;;
38805;SDS011;25635;51.146;17.162;2024-01-06T05:14:20;41.30;;;22.60;;
38805;SDS011;25635;51.146;17.162;2024-01-06T05:17:07;43.50;;;23.80;;
38805;SDS011;25635;51.146;17.162;2024-01-06T05:19:54;47.10;;;24.70;;
38805;SDS011;25635;51.146;17.162;2024-01-06T05:22:41;42.50;;;22.50;;
38805;SDS011;25635;51.146;17.162;2024-01-06T05:25:28;47.20;;;24.90;;
38805;SDS011;25635;51.146;17.162;2024-01-06T05:28:14;40.20;;;22.30;;
38805;SDS011;25635;51.146;17.162;2024-01-06T05:31:01;42.40;;;22.20;;
38805;SDS011;25635;51.146;17.162;2024-01-06T05:33:48;41.90;;;22.50;;
38805;SDS011;25635;51.146;17.162;2024-01-06T05:36:35;43.50;;;22.80;;
38805;SDS011;25635;51.146;17.162;2024-01-06T05:39:21;39.80;;;23.20;;
38805;SDS011;25635;51.146;17.162;2024-01-06T05:42:09;38.20;;;22.30;;
38805;SDS011;25635;51.146;17.162;2024-01-06T05:44:56;38.30;;;22.60;;
38805;SDS011;25635;51.146;17.162;2024-01-06T05:47:43;42.80;;;23.00;;
38805;SDS011;25635;51.146;17.162;2024-01-06T05:50:30;40.10;;;23.00;;
38805;SDS011;25635;51.146;17.162;2024-01-06T05:53:17;37.00;;;21.70;;
38805;SDS011;25635;51.146;17.162;2024-01-06T05:56:04;42.80;;;21.90;;
38805;SDS011;25635;51.146;17.162;2024-01-06T05:58:55;38.60;;;21.00;;
38805;SDS011;25635;51.146;17.162;2024-01-06T06:01:45;39.70;;;20.90;;
38805;SDS011;25635;51.146;17.162;2024-01-06T06:04:40;37.00;;;20.60;;
38805;SDS011;25635;51.146;17.162;2024-01-06T06:07:27;31.90;;;18.50;;
38805;SDS011;25635;51.146;17.162;2024-01-06T06:10:35;34.60;;;19.30;;
38805;SDS011;25635;51.146;17.162;2024-01-06T06:13:29;33.80;;;17.50;;
38805;SDS011;25635;51.146;17.162;2024-01-06T06:16:16;31.50;;;17.40;;
38805;SDS011;25635;51.146;17.162;2024-01-06T06:19:03;31.20;;;17.60;;
38805;SDS011;25635;51.146;17.162;2024-01-06T06:21:49;33.30;;;18.10;;
38805;SDS011;25635;51.146;17.162;2024-01-06T06:24:19;30.60;;;17.70;;
38805;SDS011;25635;51.146;17.162;2024-01-06T06:27:05;32.60;;;17.80;;
38805;SDS011;25635;51.146;17.162;2024-01-06T06:29:53;30.50;;;17.30;;
38805;SDS011;25635;51.146;17.162;2024-01-06T06:32:40;30.50;;;17.60;;
38805;SDS011;25635;51.146;17.162;2024-01-06T06:35:27;29.00;;;16.40;;
38805;SDS011;25635;51.146;17.162;2024-01-06T06:38:14;30.20;;;16.20;;
38805;SDS011;25635;51.146;17.162;2024-01-06T06:41:01;29.20;;;16.00;;
38805;SDS011;25635;51.146;17.162;2024-01-06T06:43:28;26.40;;;15.80;;
38805;SDS011;25635;51.146;17.162;2024-01-06T06:46:14;28.90;;;16.40;;
38805;SDS011;25635;51.146;17.162;2024-01-06T06:49:01;30.70;;;17.10;;
38805;SDS011;25635;51.146;17.162;2024-01-06T06:51:48;32.00;;;18.60;;
38805;SDS011;25635;51.146;17.162;2024-01-06T06:54:35;32.70;;;17.70;;
38805;SDS011;25635;51.146;17.162;2024-01-06T06:57:22;34.20;;;19.20;;
38805;SDS011;25635;51.146;17.162;2024-01-06T07:00:09;32.00;;;19.40;;
38805;SDS011;25635;51.146;17.162;2024-01-06T07:02:56;31.90;;;18.80;;
38805;SDS011;25635;51.146;17.162;2024-01-06T07:05:43;35.50;;;18.40;;
38805;SDS011;25635;51.146;17.162;2024-01-06T07:08:30;32.40;;;18.10;;
38805;SDS011;25635;51.146;17.162;2024-01-06T07:11:17;29.10;;;17.80;;
38805;SDS011;25635;51.146;17.162;2024-01-06T07:14:04;32.00;;;16.80;;
38805;SDS011;25635;51.146;17.162;2024-01-06T07:16:51;32.30;;;18.80;;
38805;SDS011;25635;51.146;17.162;2024-01-06T07:19:38;28.80;;;17.30;;
38805;SDS011;25635;51.146;17.162;2024-01-06T07:22:24;34.50;;;19.10;;
38805;SDS011;25635;51.146;17.162;2024-01-06T07:25:11;33.60;;;17.90;;
38805;SDS011;25635;51.146;17.162;2024-01-06T07:27:58;32.50;;;17.80;;
38805;SDS011;25635;51.146;17.162;2024-01-06T07:30:44;30.10;;;16.50;;
38805;SDS011;25635;51.146;17.162;2024-01-06T07:33:16;28.40;;;16.30;;
38805;SDS011;25635;51.146;17.162;2024-01-06T07:36:03;32.80;;;17.60;;
38805;SDS011;25635;51.146;17.162;2024-01-06T07:38:50;29.50;;;16.00;;
38805;SDS011;25635;51.146;17.162;2024-01-06T07:41:37;30.70;;;17.30;;
38805;SDS011;25635;51.146;17.162;2024-01-06T07:44:23;30.50;;;17.20;;
38805;SDS011;25635;51.146;17.162;2024-01-06T07:47:10;31.00;;;17.60;;
38805;SDS011;25635;51.146;17.162;2024-01-06T07:50:03;29.20;;;16.50;;
38805;SDS011;25635;51.146;17.162;2024-01-06T07:52:50;29.40;;;16.40;;
38805;SDS011;25635;51.146;17.162;2024-01-06T07:55:36;32.10;;;17.50;;
38805;SDS011;25635;51.146;17.162;2024-01-06T07:58:23;27.50;;;16.20;;
38805;SDS011;25635;51.146;17.162;2024-01-06T08:01:10;30.20;;;16.30;;
38805;SDS011;25635;51.146;17.162;2024-01-06T08:03:37;29.80;;;17.10;;
38805;SDS011;25635;51.146;17.162;2024-01-06T08:06:23;27.30;;;16.90;;
38805;SDS011;25635;51.146;17.162;2024-01-06T08:09:11;28.60;;;16.70;;
38805;SDS011;25635;51.146;17.162;2024-01-06T08:11:58;29.40;;;16.50;;
38805;SDS011;25635;51.146;17.162;2024-01-06T08:14:25;29.50;;;17.30;;
38805;SDS011;25635;51.146;17.162;2024-01-06T08:17:11;30.30;;;17.20;;
38805;SDS011;25635;51.146;17.162;2024-01-06T08:19:58;30.90;;;16.70;;
38805;SDS011;25635;51.146;17.162;2024-01-06T08:22:45;30.40;;;15.90;;
38805;SDS011;25635;51.146;17.162;2024-01-06T08:25:32;31.30;;;17.40;;
38805;SDS011;25635;51.146;17.162;2024-01-06T08:28:18;33.80;;;16.10;;
38805;SDS011;25635;51.146;17.162;2024-01-06T08:31:05;30.20;;;16.60;;
38805;SDS011;25635;51.146;17.162;2024-01-06T08:33:52;26.30;;;16.10;;
38805;SDS011;25635;51.146;17.162;2024-01-06T08:36:39;30.00;;;17.10;;
38805;SDS011;25635;51.146;17.162;2024-01-06T08:39:27;30.50;;;16.80;;
38805;SDS011;25635;51.146;17.162;2024-01-06T08:42:14;31.60;;;17.60;;
38805;SDS011;25635;51.146;17.162;2024-01-06T08:44:40;32.40;;;18.00;;
38805;SDS011;25635;51.146;17.162;2024-01-06T08:47:28;29.30;;;17.20;;
38805;SDS011;25635;51.146;17.162;2024-01-06T08:50:14;26.70;;;16.20;;
38805;SDS011;25635;51.146;17.162;2024-01-06T08:53:01;32.30;;;17.50;;
38805;SDS011;25635;51.146;17.162;2024-01-06T08:55:48;29.80;;;16.80;;
38805;SDS011;25635;51.146;17.162;2024-01-06T08:58:37;30.30;;;17.20;;
38805;SDS011;25635;51.146;17.162;2024-01-06T09:01:24;29.70;;;17.60;;
38805;SDS011;25635;51.146;17.162;2024-01-06T09:04:08;33.70;;;18.60;;
38805;SDS011;25635;51.146;17.162;2024-01-06T09:06:54;31.90;;;18.30;;
38805;SDS011;25635;51.146;17.162;2024-01-06T09:09:41;36.90;;;18.50;;
38805;SDS011;25635;51.146;17.162;2024-01-06T09:12:28;33.50;;;18.60;;
38805;SDS011;25635;51.146;17.162;2024-01-06T09:14:58;32.90;;;18.40;;
38805;SDS011;25635;51.146;17.162;2024-01-06T09:17:45;32.50;;;18.10;;
38805;SDS011;25635;51.146;17.162;2024-01-06T09:20:32;30.90;;;17.60;;
38805;SDS011;25635;51.146;17.162;2024-01-06T09:23:19;32.40;;;18.10;;
38805;SDS011;25635;51.146;17.162;2024-01-06T09:25:47;31.40;;;18.90;;
38805;SDS011;25635;51.146;17.162;2024-01-06T09:28:34;32.70;;;19.30;;
38805;SDS011;25635;51.146;17.162;2024-01-06T09:31:21;27.90;;;16.10;;
38805;SDS011;25635;51.146;17.162;2024-01-06T09:34:09;30.60;;;17.90;;
38805;SDS011;25635;51.146;17.162;2024-01-06T09:36:56;30.40;;;18.30;;
38805;SDS011;25635;51.146;17.162;2024-01-06T09:39:43;31.20;;;19.10;;
38805;SDS011;25635;51.146;17.162;2024-01-06T09:42:30;31.20;;;18.20;;
38805;SDS011;25635;51.146;17.162;2024-01-06T09:44:57;32.20;;;19.50;;
38805;SDS011;25635;51.146;17.162;2024-01-06T09:47:44;34.20;;;20.00;;
38805;SDS011;25635;51.146;17.162;2024-01-06T09:50:35;37.00;;;20.50;;
38805;SDS011;25635;51.146;17.162;2024-01-06T09:53:23;35.10;;;21.30;;
38805;SDS011;25635;51.146;17.162;2024-01-06T09:56:15;34.80;;;21.10;;
38805;SDS011;25635;51.146;17.162;2024-01-06T09:59:02;33.60;;;18.60;;
38805;SDS011;25635;51.146;17.162;2024-01-06T10:01:49;31.50;;;19.80;;
38805;SDS011;25635;51.146;17.162;2024-01-06T10:04:36;32.10;;;19.70;;
38805;SDS011;25635;51.146;17.162;2024-01-06T10:07:23;33.50;;;19.90;;
38805;SDS011;25635;51.146;17.162;2024-01-06T10:10:12;33.40;;;19.70;;
38805;SDS011;25635;51.146;17.162;2024-01-06T10:13:00;37.30;;;21.40;;
38805;SDS011;25635;51.146;17.162;2024-01-06T10:15:27;36.10;;;20.60;;
38805;SDS011;25635;51.146;17.162;2024-01-06T10:18:15;32.50;;;19.80;;
38805;SDS011;25635;51.146;17.162;2024-01-06T10:21:05;35.10;;;21.20;;
38805;SDS011;25635;51.146;17.162;2024-01-06T10:23:53;34.50;;;19.90;;
38805;SDS011;25635;51.146;17.162;2024-01-06T10:26:40;39.20;;;22.30;;
38805;SDS011;25635;51.146;17.162;2024-01-06T10:29:27;36.90;;;21.60;;
38805;SDS011;25635;51.146;17.162;2024-01-06T10:32:14;34.60;;;20.80;;
38805;SDS011;25635;51.146;17.162;2024-01-06T10:34:57;33.80;;;19.70;;
38805;SDS011;25635;51.146;17.162;2024-01-06T10:37:45;27.20;;;17.90;;
38805;SDS011;25635;51.146;17.162;2024-01-06T10:40:32;33.00;;;20.00;;
38805;SDS011;25635;51.146;17.162;2024-01-06T10:43:21;31.10;;;19.40;;
38805;SDS011;25635;51.146;17.162;2024-01-06T10:46:09;30.70;;;18.70;;
38805;SDS011;25635;51.146;17.162;2024-01-06T10:48:56;30.40;;;19.30;;
38805;SDS011;25635;51.146;17.162;2024-01-06T10:51:44;32.50;;;19.60;;
38805;SDS011;25635;51.146;17.162;2024-01-06T10:54:33;32.10;;;20.40;;
38805;SDS011;25635;51.146;17.162;2024-01-06T10:57:22;32.80;;;20.30;;
38805;SDS011;25635;51.146;17.162;2024-01-06T11:00:09;34.40;;;19.80;;
38805;SDS011;25635;51.146;17.162;2024-01-06T11:02:56;34.00;;;20.50;;
38805;SDS011;25635;51.146;17.162;2024-01-06T11:05:24;35.80;;;21.40;;
38805;SDS011;25635;51.146;17.162;2024-01-06T11:08:12;35.60;;;21.40;;
38805;SDS011;25635;51.146;17.162;2024-01-06T11:10:59;35.60;;;22.00;;
38805;SDS011;25635;51.146;17.162;2024-01-06T11:13:46;35.60;;;21.20;;
38805;SDS011;25635;51.146;17.162;2024-01-06T11:17:01;35.10;;;21.10;;
38805;SDS011;25635;51.146;17.162;2024-01-06T11:19:55;38.50;;;22.40;;
38805;SDS011;25635;51.146;17.162;2024-01-06T11:22:51;38.70;;;25.00;;
38805;SDS011;25635;51.146;17.162;2024-01-06T11:25:38;45.00;;;26.50;;
38805;SDS011;25635;51.146;17.162;2024-01-06T11:28:31;44.20;;;25.70;;
38805;SDS011;25635;51.146;17.162;2024-01-06T11:31:18;46.70;;;27.20;;
38805;SDS011;25635;51.146;17.162;2024-01-06T11:33:45;45.60;;;26.90;;
38805;SDS011;25635;51.146;17.162;2024-01-06T11:36:16;52.50;;;28.10;;
38805;SDS011;25635;51.146;17.162;2024-01-06T11:39:04;49.30;;;28.20;;
38805;SDS011;25635;51.146;17.162;2024-01-06T11:41:51;49.60;;;27.60;;
38805;SDS011;25635;51.146;17.162;2024-01-06T11:44:39;47.90;;;28.80;;
38805;SDS011;25635;51.146;17.162;2024-01-06T11:47:29;44.80;;;27.30;;
38805;SDS011;25635;51.146;17.162;2024-01-06T11:50:19;47.20;;;26.80;;
38805;SDS011;25635;51.146;17.162;2024-01-06T11:53:06;45.90;;;27.20;;
38805;SDS011;25635;51.146;17.162;2024-01-06T11:55:40;46.90;;;27.20;;
38805;SDS011;25635;51.146;17.162;2024-01-06T11:58:27;50.20;;;27.80;;
38805;SDS011;25635;51.146;17.162;2024-01-06T12:01:14;49.20;;;27.60;;
38805;SDS011;25635;51.146;17.162;2024-01-06T12:04:01;46.90;;;27.40;;
38805;SDS011;25635;51.146;17.162;2024-01-06T12:06:48;48.80;;;27.70;;
38805;SDS011;25635;51.146;17.162;2024-01-06T12:09:35;42.90;;;25.10;;
38805;SDS011;25635;51.146;17.162;2024-01-06T12:12:24;45.40;;;26.60;;
38805;SDS011;25635;51.146;17.162;2024-01-06T12:15:11;46.90;;;27.40;;
38805;SDS011;25635;51.146;17.162;2024-01-06T12:17:58;46.00;;;26.60;;
38805;SDS011;25635;51.146;17.162;2024-01-06T12:20:46;46.80;;;26.90;;
38805;SDS011;25635;51.146;17.162;2024-01-06T12:23:32;46.90;;;27.00;;
38805;SDS011;25635;51.146;17.162;2024-01-06T12:26:01;45.80;;;26.50;;
38805;SDS011;25635;51.146;17.162;2024-01-06T12:28:51;43.40;;;25.60;;
38805;SDS011;25635;51.146;17.162;2024-01-06T12:31:20;47.30;;;27.40;;
38805;SDS011;25635;51.146;17.162;2024-01-06T12:34:15;46.60;;;27.30;;
38805;SDS011;25635;51.146;17.162;2024-01-06T12:37:02;50.10;;;29.30;;
38805;SDS011;25635;51.146;17.162;2024-01-06T12:40:09;51.10;;;29.00;;
38805;SDS011;25635;51.146;17.162;2024-01-06T12:42:56;51.50;;;29.50;;
38805;SDS011;25635;51.146;17.162;2024-01-06T12:45:43;52.10;;;28.90;;
38805;SDS011;25635;51.146;17.162;2024-01-06T12:48:30;50.60;;;28.60;;
38805;SDS011;25635;51.146;17.162;2024-01-06T12:51:38;52.90;;;28.40;;
38805;SDS011;25635;51.146;17.162;2024-01-06T12:54:26;49.40;;;28.40;;
38805;SDS011;25635;51.146;17.162;2024-01-06T12:57:14;44.60;;;26.80;;
38805;SDS011;25635;51.146;17.162;2024-01-06T13:00:02;46.20;;;27.10;;
38805;SDS011;25635;51.146;17.162;2024-01-06T13:02:49;49.50;;;28.10;;
38805;SDS011;25635;51.146;17.162;2024-01-06T13:05:36;53.50;;;30.00;;
38805;SDS011;25635;51.146;17.162;2024-01-06T13:08:23;47.40;;;27.80;;
38805;SDS011;25635;51.146;17.162;2024-01-06T13:11:10;55.20;;;28.90;;
38805;SDS011;25635;51.146;17.162;2024-01-06T13:13:57;51.40;;;27.10;;
38805;SDS011;25635;51.146;17.162;2024-01-06T13:16:24;48.00;;;27.00;;
38805;SDS011;25635;51.146;17.162;2024-01-06T13:19:10;49.20;;;27.40;;
38805;SDS011;25635;51.146;17.162;2024-01-06T13:21:57;46.70;;;27.50;;
38805;SDS011;25635;51.146;17.162;2024-01-06T13:24:44;47.60;;;27.60;;
38805;SDS011;25635;51.146;17.162;2024-01-06T13:27:11;51.30;;;28.00;;
38805;SDS011;25635;51.146;17.162;2024-01-06T13:29:57;48.30;;;28.10;;
38805;SDS011;25635;51.146;17.162;2024-01-06T13:32:44;51.10;;;27.50;;
38805;SDS011;25635;51.146;17.162;2024-01-06T13:35:31;51.60;;;28.00;;
38805;SDS011;25635;51.146;17.162;2024-01-06T13:38:18;47.90;;;26.60;;
38805;SDS011;25635;51.146;17.162;2024-01-06T13:41:04;50.10;;;27.40;;
38805;SDS011;25635;51.146;17.162;2024-01-06T13:43:52;46.70;;;26.50;;
38805;SDS011;25635;51.146;17.162;2024-01-06T13:46:27;46.60;;;26.80;;
38805;SDS011;25635;51.146;17.162;2024-01-06T13:49:14;50.20;;;27.50;;
38805;SDS011;25635;51.146;17.162;2024-01-06T13:52:01;46.50;;;27.10;;
38805;SDS011;25635;51.146;17.162;2024-01-06T13:54:48;52.80;;;29.40;;
38805;SDS011;25635;51.146;17.162;2024-01-06T13:57:34;52.40;;;28.20;;
38805;SDS011;25635;51.146;17.162;2024-01-06T14:00:21;55.30;;;27.90;;
38805;SDS011;25635;51.146;17.162;2024-01-06T14:03:08;45.70;;;24.60;;
38805;SDS011;25635;51.146;17.162;2024-01-06T14:05:55;58.70;;;29.20;;
38805;SDS011;25635;51.146;17.162;2024-01-06T14:08:42;46.70;;;26.30;;
38805;SDS011;25635;51.146;17.162;2024-01-06T14:11:29;41.70;;;24.40;;
38805;SDS011;25635;51.146;17.162;2024-01-06T14:14:16;46.00;;;25.50;;
38805;SDS011;25635;51.146;17.162;2024-01-06T14:16:52;45.30;;;25.20;;
38805;SDS011;25635;51.146;17.162;2024-01-06T14:19:38;44.20;;;27.10;;
38805;SDS011;25635;51.146;17.162;2024-01-06T14:22:25;42.60;;;23.80;;
38805;SDS011;25635;51.146;17.162;2024-01-06T14:25:12;48.30;;;27.40;;
38805;SDS011;25635;51.146;17.162;2024-01-06T14:27:59;51.50;;;26.80;;
38805;SDS011;25635;51.146;17.162;2024-01-06T14:30:46;49.10;;;27.00;;
38805;SDS011;25635;51.146;17.162;2024-01-06T14:33:33;45.10;;;26.60;;
38805;SDS011;25635;51.146;17.162;2024-01-06T14:36:20;47.00;;;26.40;;
38805;SDS011;25635;51.146;17.162;2024-01-06T14:39:07;44.40;;;26.30;;
38805;SDS011;25635;51.146;17.162;2024-01-06T14:41:54;45.50;;;25.40;;
38805;SDS011;25635;51.146;17.162;2024-01-06T14:44:41;48.50;;;25.90;;
38805;SDS011;25635;51.146;17.162;2024-01-06T14:47:07;46.90;;;26.10;;
38805;SDS011;25635;51.146;17.162;2024-01-06T14:49:55;51.50;;;26.70;;
38805;SDS011;25635;51.146;17.162;2024-01-06T14:52:41;47.10;;;25.30;;
38805;SDS011;25635;51.146;17.162;2024-01-06T14:55:28;44.70;;;24.20;;
38805;SDS011;25635;51.146;17.162;2024-01-06T14:58:15;45.50;;;24.30;;
38805;SDS011;25635;51.146;17.162;2024-01-06T15:01:02;47.60;;;27.10;;
38805;SDS011;25635;51.146;17.162;2024-01-06T15:03:49;41.60;;;23.20;;
38805;SDS011;25635;51.146;17.162;2024-01-06T15:06:36;52.70;;;26.80;;
38805;SDS011;25635;51.146;17.162;2024-01-06T15:09:22;42.60;;;24.80;;
38805;SDS011;25635;51.146;17.162;2024-01-06T15:12:09;52.70;;;27.40;;
38805;SDS011;25635;51.146;17.162;2024-01-06T15:14:56;46.30;;;24.60;;
38805;SDS011;25635;51.146;17.162;2024-01-06T15:17:43;45.20;;;23.40;;
38805;SDS011;25635;51.146;17.162;2024-01-06T15:20:30;42.40;;;23.70;;
38805;SDS011;25635;51.146;17.162;2024-01-06T15:23:17;42.50;;;22.80;;
38805;SDS011;25635;51.146;17.162;2024-01-06T15:26:03;47.20;;;25.40;;
38805;SDS011;25635;51.146;17.162;2024-01-06T15:28:50;47.90;;;26.10;;
38805;SDS011;25635;51.146;17.162;2024-01-06T15:31:37;47.20;;;24.60;;
38805;SDS011;25635;51.146;17.162;2024-01-06T15:34:24;47.90;;;25.70;;
38805;SDS011;25635;51.146;17.162;2024-01-06T15:37:11;53.40;;;26.60;;
38805;SDS011;25635;51.146;17.162;2024-01-06T15:40:27;48.90;;;25.70;;
38805;SDS011;25635;51.146;17.162;2024-01-06T15:43:31;50.80;;;25.70;;
38805;SDS011;25635;51.146;17.162;2024-01-06T15:46:18;47.00;;;26.30;;
38805;SDS011;25635;51.146;17.162;2024-01-06T15:49:06;45.20;;;24.40;;
38805;SDS011;25635;51.146;17.162;2024-01-06T15:51:52;47.60;;;26.80;;
38805;SDS011;25635;51.146;17.162;2024-01-06T15:55:03;50.10;;;26.10;;
38805;SDS011;25635;51.146;17.162;2024-01-06T15:57:53;52.00;;;27.20;;